Time;durP1;ratioP1;P1;durP2;ratioP2;P2;SDS_P1;SDS_P2;PMS_P1;PMS_P2;Temp;Humidity;BMP_temperature;BMP_pressure;BME280_temperature;BME280_humidity;BME280_pressure;Samples;Min_cycle;Max_cycle;Signal;HPM_P1;HPM_P2
2023/09/28 00:01:00;;;;;;;10.80;5.40;;;;;;;21.95;31.74;101111.36;108110;1288;21992;-64
2023/09/28 00:03:27;;;;;;;7.90;5.40;;;;;;;21.94;31.74;101112.30;108172;1287;21993;-65
2023/09/28 00:05:53;;;;;;;12.10;5.00;;;;;;;21.96;31.74;101112.92;108155;1287;21999;-64
2023/09/28 00:08:18;;;;;;;13.60;5.50;;;;;;;21.95;31.83;101107.59;108094;1287;21990;-57
2023/09/28 00:10:44;;;;;;;9.50;5.30;;;;;;;21.95;31.87;101112.27;108072;1286;21995;-64
2023/09/28 00:13:09;;;;;;;7.20;5.20;;;;;;;21.95;31.83;101110.66;108131;1282;22004;-57
2023/09/28 00:15:35;;;;;;;11.50;5.40;;;;;;;21.93;31.85;101109.48;108112;1277;21990;-65
2023/09/28 00:18:00;;;;;;;8.80;5.20;;;;;;;21.91;31.93;101105.82;108109;1283;21993;-65
2023/09/28 00:20:27;;;;;;;14.20;5.50;;;;;;;21.91;31.92;101100.30;108141;1284;22014;-64
2023/09/28 00:22:54;;;;;;;11.50;5.40;;;;;;;21.90;32.01;101097.34;108098;1288;22000;-58
2023/09/28 00:25:21;;;;;;;9.50;5.90;;;;;;;21.88;32.07;101098.84;108148;1288;21989;-64
2023/09/28 00:27:47;;;;;;;9.20;5.50;;;;;;;21.85;32.11;101101.48;108174;1283;22030;-64
2023/09/28 00:30:18;;;;;;;11.90;5.30;;;;;;;21.83;32.20;101105.35;108181;1283;21990;-57
2023/09/28 00:32:47;;;;;;;14.00;5.70;;;;;;;21.80;32.01;101105.48;108093;1288;22261;-57
2023/09/28 00:35:13;;;;;;;9.90;5.80;;;;;;;21.77;32.20;101107.23;108208;1283;21990;-57
2023/09/28 00:37:39;;;;;;;9.20;5.50;;;;;;;21.74;32.10;101108.81;108086;1288;21995;-58
2023/09/28 00:40:16;;;;;;;10.90;5.90;;;;;;;21.71;32.10;101111.63;108162;1283;22052;-65
2023/09/28 00:42:45;;;;;;;11.20;5.40;;;;;;;21.67;32.07;101111.61;108130;1283;21998;-56
2023/09/28 00:45:11;;;;;;;11.10;5.40;;;;;;;21.63;32.18;101109.52;108096;1287;22048;-58
2023/09/28 00:47:39;;;;;;;10.00;5.40;;;;;;;21.58;32.25;101108.83;108103;1280;22036;-65
2023/09/28 00:50:09;;;;;;;11.70;5.90;;;;;;;21.52;32.17;101109.42;108104;1280;21992;-65
2023/09/28 00:52:38;;;;;;;9.90;6.20;;;;;;;21.48;32.22;101109.25;108126;1285;21998;-58
2023/09/28 00:55:04;;;;;;;8.30;5.90;;;;;;;21.43;32.24;101111.28;108133;1287;21990;-64
2023/09/28 00:57:33;;;;;;;12.80;6.50;;;;;;;21.38;32.35;101110.78;108039;1276;22207;-64
2023/09/28 01:00:18;;;;;;;10.50;5.50;;;;;;;21.33;32.50;101109.75;107213;1287;1003065;-58
2023/09/28 01:02:51;;;;;;;11.50;5.70;;;;;;;21.27;32.46;101107.55;108108;1285;21986;-58
2023/09/28 01:05:18;;;;;;;8.80;6.00;;;;;;;21.22;32.46;101109.52;108079;1288;21987;-66
2023/09/28 01:07:43;;;;;;;12.70;6.30;;;;;;;21.18;32.60;101111.33;108162;1288;22377;-59
2023/09/28 01:10:12;;;;;;;8.00;6.00;;;;;;;21.14;32.65;101107.95;108126;1288;21997;-66
2023/09/28 01:12:41;;;;;;;11.00;5.70;;;;;;;21.09;32.71;101106.02;108117;1288;22104;-66
2023/09/28 01:15:11;;;;;;;13.60;6.00;;;;;;;21.04;32.76;101110.35;108136;1288;21999;-66
2023/09/28 01:17:40;;;;;;;11.80;6.50;;;;;;;20.99;32.81;101111.98;108165;1288;21992;-59
2023/09/28 01:20:18;;;;;;;11.60;5.90;;;;;;;20.95;32.89;101118.23;108129;1287;21996;-59
2023/09/28 01:22:50;;;;;;;10.20;6.10;;;;;;;20.92;32.92;101117.49;108083;1278;21974;-59
2023/09/28 01:25:21;;;;;;;12.50;6.20;;;;;;;20.86;32.93;101116.30;108131;1288;21995;-58
2023/09/28 01:27:47;;;;;;;11.90;6.00;;;;;;;20.81;32.96;101117.77;108136;1283;22047;-66
2023/09/28 01:30:13;;;;;;;13.00;6.00;;;;;;;20.77;32.97;101117.94;108115;1283;22000;-66
2023/09/28 01:32:40;;;;;;;9.70;6.10;;;;;;;20.73;33.00;101117.73;108158;1288;21991;-58
2023/09/28 01:35:06;;;;;;;17.30;7.00;;;;;;;20.68;33.02;101121.17;108153;1280;21998;-59
2023/09/28 01:38:14;;;;;;;8.60;5.90;;;;;;;20.62;32.95;101121.77;108140;1288;21990;-59
2023/09/28 01:40:41;;;;;;;10.00;5.80;;;;;;;20.53;33.05;101122.69;108118;1285;21994;-66
2023/09/28 01:43:07;;;;;;;16.50;7.80;;;;;;;20.45;32.96;101124.08;108178;1283;21990;-58
2023/09/28 01:45:33;;;;;;;14.30;6.60;;;;;;;20.37;33.07;101126.20;108134;1287;22078;-58
2023/09/28 01:48:00;;;;;;;12.70;6.50;;;;;;;20.27;33.07;101127.31;108133;1288;21947;-67
2023/09/28 01:50:25;;;;;;;11.60;6.00;;;;;;;20.20;33.19;101129.73;108118;1288;21997;-65
2023/09/28 01:52:51;;;;;;;11.40;6.30;;;;;;;20.15;33.35;101129.20;108100;1283;22370;-59
2023/09/28 01:55:17;;;;;;;12.30;6.30;;;;;;;20.11;33.45;101126.02;108100;1288;21997;-66
2023/09/28 01:57:42;;;;;;;10.00;6.40;;;;;;;20.03;33.38;101125.60;108098;1283;22056;-59
2023/09/28 02:00:14;;;;;;;12.70;6.90;;;;;;;19.96;33.52;101125.33;108073;1288;22040;-60
2023/09/28 02:02:42;;;;;;;10.20;6.20;;;;;;;19.93;33.56;101126.19;108170;1288;21997;-58
2023/09/28 02:05:08;;;;;;;12.30;5.90;;;;;;;19.91;33.58;101125.02;108159;1287;21987;-64
2023/09/28 02:07:34;;;;;;;12.10;6.20;;;;;;;19.89;33.65;101125.07;108145;1288;21988;-58
2023/09/28 02:10:00;;;;;;;9.30;6.00;;;;;;;19.87;33.60;101123.55;108207;1286;22468;-66
2023/09/28 02:12:27;;;;;;;12.70;6.20;;;;;;;19.85;33.62;101130.75;108139;1287;21995;-66
2023/09/28 02:14:56;;;;;;;13.50;6.50;;;;;;;19.83;33.63;101132.77;108102;1283;21990;-65
2023/09/28 02:17:21;;;;;;;13.30;6.50;;;;;;;19.82;33.63;101133.88;108124;1288;21991;-65
2023/09/28 02:19:50;;;;;;;11.10;6.10;;;;;;;19.81;33.65;101139.27;105889;1288;1003188;-58
2023/09/28 02:22:15;;;;;;;15.00;6.60;;;;;;;19.79;33.71;101137.91;108092;1283;21987;-64
2023/09/28 02:24:41;;;;;;;12.80;6.90;;;;;;;19.78;33.79;101138.30;108079;1283;22959;-66
2023/09/28 02:27:07;;;;;;;11.90;6.50;;;;;;;19.75;33.78;101139.65;108118;1277;22004;-58
2023/09/28 02:29:33;;;;;;;11.70;6.20;;;;;;;19.72;33.86;101147.27;108100;1288;21998;-58
2023/09/28 02:31:58;;;;;;;14.40;6.60;;;;;;;19.69;33.97;101148.08;108153;1288;22030;-59
2023/09/28 02:34:24;;;;;;;14.40;7.00;;;;;;;19.69;34.07;101153.61;108152;1278;21992;-66
2023/09/28 02:36:50;;;;;;;12.20;6.90;;;;;;;19.69;33.98;101153.26;108088;1283;21992;-65
2023/09/28 02:39:16;;;;;;;17.70;6.80;;;;;;;19.69;33.95;101152.69;108104;1288;21990;-58
2023/09/28 02:41:41;;;;;;;13.60;6.70;;;;;;;19.69;34.01;101151.48;108119;1283;21996;-59
2023/09/28 02:44:07;;;;;;;12.30;6.90;;;;;;;19.65;34.02;101151.45;108154;1283;21988;-59
2023/09/28 02:46:32;;;;;;;15.30;6.90;;;;;;;19.60;34.06;101151.81;108113;1286;21990;-66
2023/09/28 02:48:58;;;;;;;15.00;6.70;;;;;;;19.55;34.12;101150.55;108104;1286;21990;-66
2023/09/28 02:51:23;;;;;;;12.90;6.70;;;;;;;19.52;34.16;101152.83;108129;1288;21992;-66
2023/09/28 02:53:49;;;;;;;17.40;7.50;;;;;;;19.48;34.27;101155.27;108087;1288;21997;-66
2023/09/28 02:56:14;;;;;;;14.40;6.90;;;;;;;19.45;34.30;101155.02;108093;1288;22040;-60
2023/09/28 02:58:40;;;;;;;11.40;7.80;;;;;;;19.42;34.33;101158.34;108110;1280;22020;-59
2023/09/28 03:01:06;;;;;;;10.70;7.20;;;;;;;19.41;34.39;101159.12;108048;1284;22451;-60
2023/09/28 03:03:31;;;;;;;12.80;7.20;;;;;;;19.39;34.39;101163.45;108072;1280;21989;-66
2023/09/28 03:05:58;;;;;;;12.70;7.20;;;;;;;19.37;34.49;101163.88;108138;1277;21992;-58
2023/09/28 03:08:24;;;;;;;12.30;7.60;;;;;;;19.35;34.65;101167.67;108114;1288;21989;-66
2023/09/28 03:10:52;;;;;;;10.20;7.40;;;;;;;19.32;34.60;101171.52;108087;1287;22456;-66
2023/09/28 03:13:18;;;;;;;9.90;6.70;;;;;;;19.28;34.74;101171.33;108125;1283;21984;-57
2023/09/28 03:15:45;;;;;;;11.50;7.40;;;;;;;19.24;34.77;101171.45;107798;1283;22031;-64
2023/09/28 03:18:13;;;;;;;17.40;7.60;;;;;;;19.21;34.80;101167.66;107285;1288;1003052;-65
2023/09/28 03:20:43;;;;;;;13.80;7.20;;;;;;;19.16;34.98;101169.95;107812;1288;21996;-58
2023/09/28 03:23:08;;;;;;;14.90;7.50;;;;;;;19.12;34.88;101169.37;108093;1285;22025;-65
2023/09/28 03:25:34;;;;;;;14.60;7.40;;;;;;;19.10;34.96;101176.04;108096;1288;21985;-65
2023/09/28 03:28:00;;;;;;;15.50;8.20;;;;;;;19.06;35.06;101180.27;108088;1287;21993;-57
2023/09/28 03:30:26;;;;;;;24.60;8.40;;;;;;;19.00;35.12;101177.78;108144;1283;22172;-64
2023/09/28 03:32:52;;;;;;;15.70;8.00;;;;;;;18.96;35.20;101179.71;108000;1283;21992;-57
2023/09/28 03:35:18;;;;;;;18.10;8.00;;;;;;;18.92;35.29;101179.48;108072;1287;22009;-59
2023/09/28 03:37:45;;;;;;;19.20;8.10;;;;;;;18.86;35.28;101179.33;108036;1288;21992;-64
2023/09/28 03:40:11;;;;;;;20.90;7.70;;;;;;;18.82;35.39;101177.15;108066;1288;22001;-57
2023/09/28 03:42:38;;;;;;;19.00;7.90;;;;;;;18.78;35.43;101177.12;108022;1283;22007;-65
2023/09/28 03:45:04;;;;;;;17.70;7.50;;;;;;;18.73;35.49;101177.97;108032;1284;21993;-57
2023/09/28 03:47:33;;;;;;;14.90;8.30;;;;;;;18.71;35.55;101177.52;108056;1286;21992;-57
2023/09/28 03:49:58;;;;;;;22.90;8.00;;;;;;;18.69;35.62;101175.08;108045;1280;21995;-65
2023/09/28 03:52:24;;;;;;;20.80;7.50;;;;;;;18.70;35.76;101172.92;107275;1280;1002631;-58
2023/09/28 03:54:50;;;;;;;18.50;7.90;;;;;;;18.72;35.92;101174.45;108056;1280;21999;-57
2023/09/28 03:57:15;;;;;;;19.20;7.40;;;;;;;18.75;35.86;101169.38;108015;1283;21999;-57
2023/09/28 03:59:41;;;;;;;13.50;7.70;;;;;;;18.79;35.96;101166.23;108041;1286;21998;-57
2023/09/28 04:02:06;;;;;;;12.50;7.40;;;;;;;18.82;35.98;101168.78;108009;1283;21991;-64
2023/09/28 04:04:32;;;;;;;12.40;7.50;;;;;;;18.86;36.00;101167.94;107971;1288;21995;-58
2023/09/28 04:06:58;;;;;;;15.10;7.00;;;;;;;18.89;36.12;101166.05;107983;1288;23061;-58
2023/09/28 04:09:23;;;;;;;12.50;7.80;;;;;;;18.94;36.22;101167.33;108020;1288;21989;-57
2023/09/28 04:11:49;;;;;;;11.70;7.00;;;;;;;18.98;36.09;101164.16;108031;1280;22053;-65
2023/09/28 04:14:15;;;;;;;18.60;7.90;;;;;;;19.05;36.20;101171.41;108054;1288;22000;-57
2023/09/28 04:16:41;;;;;;;11.60;7.00;;;;;;;19.10;36.11;101174.61;108002;1280;22004;-57
2023/09/28 04:19:07;;;;;;;16.80;8.00;;;;;;;19.15;36.16;101179.60;108029;1284;22000;-57
2023/09/28 04:21:33;;;;;;;13.70;7.60;;;;;;;19.20;36.19;101178.54;108008;1280;22020;-65
2023/09/28 04:23:59;;;;;;;14.10;7.50;;;;;;;19.25;36.20;101181.21;108014;1283;22000;-57
2023/09/28 04:26:25;;;;;;;12.40;7.50;;;;;;;19.29;36.11;101180.33;108048;1288;21994;-60
2023/09/28 04:28:51;;;;;;;18.60;7.50;;;;;;;19.36;36.24;101179.56;108006;1288;21992;-57
2023/09/28 04:31:18;;;;;;;11.40;6.50;;;;;;;19.43;36.19;101180.38;108070;1287;22024;-57
2023/09/28 04:33:44;;;;;;;14.80;7.30;;;;;;;19.51;36.24;101180.96;108064;1277;21996;-66
2023/09/28 04:36:10;;;;;;;11.50;7.10;;;;;;;19.58;36.21;101180.52;108034;1288;22000;-65
2023/09/28 04:38:36;;;;;;;11.00;6.70;;;;;;;19.65;36.27;101172.26;108050;1286;22004;-63
2023/09/28 04:41:03;;;;;;;16.80;7.00;;;;;;;19.73;36.22;101174.09;107750;1284;22050;-63
2023/09/28 04:43:29;;;;;;;12.80;6.90;;;;;;;19.83;36.28;101172.14;108054;1288;21997;-57
2023/09/28 04:45:55;;;;;;;22.30;7.40;;;;;;;19.93;36.28;101171.25;108013;1288;22473;-57
2023/09/28 04:48:21;;;;;;;23.80;6.70;;;;;;;20.02;36.25;101175.33;108008;1280;22052;-57
2023/09/28 04:50:47;;;;;;;17.50;7.60;;;;;;;20.11;36.16;101175.34;107978;1287;21993;-57
2023/09/28 04:53:13;;;;;;;14.80;6.40;;;;;;;20.20;36.16;101173.37;107999;1288;21981;-57
2023/09/28 04:55:38;;;;;;;16.70;6.60;;;;;;;20.31;36.06;101175.29;107999;1283;21995;-65
2023/09/28 04:58:04;;;;;;;13.10;6.80;;;;;;;20.42;36.00;101175.20;108026;1280;21995;-65
2023/09/28 05:00:30;;;;;;;12.90;8.00;;;;;;;20.52;36.03;101174.95;107988;1288;22062;-65
2023/09/28 05:02:56;;;;;;;12.70;7.20;;;;;;;20.62;36.00;101173.10;108029;1286;22453;-64
2023/09/28 05:05:22;;;;;;;13.70;7.60;;;;;;;20.74;35.98;101176.55;107776;1288;21989;-56
2023/09/28 05:07:48;;;;;;;11.70;6.90;;;;;;;20.87;35.87;101178.52;107990;1288;22000;-65
2023/09/28 05:10:13;;;;;;;12.80;7.10;;;;;;;21.01;35.72;101179.89;108122;1288;21987;-63
2023/09/28 05:12:39;;;;;;;18.10;8.00;;;;;;;21.14;35.57;101180.05;108136;1288;22100;-57
2023/09/28 05:15:06;;;;;;;17.40;8.60;;;;;;;21.26;35.47;101178.77;108076;1283;22030;-64
2023/09/28 05:17:31;;;;;;;16.40;8.10;;;;;;;21.41;35.33;101173.48;108115;1288;21987;-64
2023/09/28 05:19:57;;;;;;;14.40;7.70;;;;;;;21.55;35.21;101176.06;108120;1288;21995;-65
2023/09/28 05:22:23;;;;;;;15.30;8.00;;;;;;;21.68;35.13;101181.77;108111;1288;21994;-64
2023/09/28 05:24:49;;;;;;;14.00;7.90;;;;;;;21.83;35.07;101181.09;107823;1288;21999;-56
2023/09/28 05:27:14;;;;;;;14.00;8.90;;;;;;;22.00;35.04;101180.64;108124;1283;21991;-57
2023/09/28 05:29:40;;;;;;;13.50;7.60;;;;;;;22.15;34.90;101182.08;108118;1283;21994;-64
2023/09/28 05:32:08;;;;;;;14.50;8.10;;;;;;;22.29;34.72;101181.21;108110;1277;22172;-56
2023/09/28 05:34:34;;;;;;;20.60;8.20;;;;;;;22.44;34.76;101180.30;108109;1283;22083;-56
2023/09/28 05:37:00;;;;;;;13.80;7.10;;;;;;;22.60;34.57;101179.73;108109;1288;21983;-58
2023/09/28 05:39:25;;;;;;;26.70;8.30;;;;;;;22.75;34.16;101178.77;108211;1281;21995;-57
2023/09/28 05:41:51;;;;;;;14.00;7.20;;;;;;;22.89;34.30;101174.49;108070;1288;22178;-63
2023/09/28 05:44:16;;;;;;;20.20;7.70;;;;;;;23.04;34.00;101173.40;108116;1281;21991;-63
2023/09/28 05:46:42;;;;;;;14.70;7.20;;;;;;;23.17;33.96;101174.70;108090;1287;21991;-59
2023/09/28 05:49:07;;;;;;;14.50;7.40;;;;;;;23.30;33.92;101170.82;108114;1288;21978;-57
2023/09/28 05:51:33;;;;;;;13.20;7.10;;;;;;;23.44;33.86;101165.25;108113;1280;22020;-58
2023/09/28 05:53:58;;;;;;;11.00;7.20;;;;;;;23.60;33.65;101163.84;108125;1280;21993;-64
2023/09/28 05:56:24;;;;;;;13.70;7.40;;;;;;;23.78;33.33;101163.38;108109;1287;21992;-57
2023/09/28 05:58:49;;;;;;;17.00;7.00;;;;;;;23.95;33.18;101161.76;108149;1283;21999;-65
2023/09/28 06:01:18;;;;;;;18.60;6.90;;;;;;;24.13;33.20;101164.52;108144;1286;22060;-57
2023/09/28 06:03:43;;;;;;;13.70;6.70;;;;;;;24.31;33.15;101163.12;108165;1283;21992;-57
2023/09/28 06:06:13;;;;;;;11.70;6.40;;;;;;;24.46;33.02;101157.77;108067;1288;21996;-57
2023/09/28 06:08:39;;;;;;;20.30;7.50;;;;;;;24.66;32.88;101156.81;108169;1288;22000;-65
2023/09/28 06:11:05;;;;;;;17.90;7.10;;;;;;;24.88;32.70;101156.08;108131;1288;21997;-58
2023/09/28 06:13:31;;;;;;;12.50;6.30;;;;;;;25.02;32.65;101154.84;108113;1284;21999;-57
2023/09/28 06:15:56;;;;;;;11.30;6.50;;;;;;;25.21;32.32;101153.38;108067;1288;21998;-57
2023/09/28 06:18:22;;;;;;;9.60;5.70;;;;;;;25.39;32.38;101152.23;108063;1285;21990;-65
2023/09/28 06:20:47;;;;;;;10.70;5.70;;;;;;;25.61;32.04;101151.98;108086;1287;21992;-58
2023/09/28 06:23:14;;;;;;;13.20;6.10;;;;;;;25.86;31.88;101146.93;108115;1288;23333;-58
2023/09/28 06:25:41;;;;;;;12.60;6.10;;;;;;;26.07;31.65;101147.38;108100;1287;22080;-58
2023/09/28 06:28:07;;;;;;;10.20;5.80;;;;;;;26.24;31.39;101148.62;108139;1283;21992;-58
2023/09/28 06:30:33;;;;;;;11.50;6.00;;;;;;;26.42;31.27;101151.06;108087;1288;23625;-57
2023/09/28 06:32:58;;;;;;;7.90;5.00;;;;;;;26.62;31.23;101147.79;108092;1288;23644;-64
2023/09/28 06:35:24;;;;;;;13.60;5.40;;;;;;;26.79;30.96;101143.55;108112;1284;21990;-66
2023/09/28 06:37:49;;;;;;;9.80;6.00;;;;;;;26.92;30.55;101142.10;108118;1280;21990;-64
2023/09/28 06:40:15;;;;;;;15.20;6.30;;;;;;;27.03;30.60;101142.08;108110;1286;21996;-57
2023/09/28 06:42:41;;;;;;;13.60;5.90;;;;;;;27.14;30.57;101145.48;108117;1288;22047;-57
2023/09/28 06:45:07;;;;;;;8.60;5.40;;;;;;;27.32;30.36;101143.13;108106;1288;21994;-57
2023/09/28 06:47:33;;;;;;;11.50;5.80;;;;;;;27.53;30.23;101143.85;108124;1287;21994;-65
2023/09/28 06:49:59;;;;;;;12.90;5.90;;;;;;;27.75;30.14;101141.58;108058;1288;22271;-65
2023/09/28 06:52:25;;;;;;;8.20;5.60;;;;;;;27.93;29.86;101141.89;108113;1288;22194;-66
2023/09/28 06:54:51;;;;;;;12.30;5.50;;;;;;;28.12;29.88;101141.55;108087;1288;21995;-58
2023/09/28 06:57:17;;;;;;;11.10;5.10;;;;;;;28.32;29.67;101143.19;108071;1284;21996;-59
2023/09/28 06:59:42;;;;;;;15.80;4.90;;;;;;;28.48;29.28;101141.38;107786;1288;21989;-67
2023/09/28 07:02:09;;;;;;;10.50;5.40;;;;;;;28.61;29.24;101137.00;108109;1288;21995;-57
2023/09/28 07:04:35;;;;;;;14.80;4.40;;;;;;;28.89;29.30;101136.50;108136;1277;21990;-65
2023/09/28 07:07:00;;;;;;;10.80;4.70;;;;;;;29.20;29.16;101139.85;108109;1283;21992;-63
2023/09/28 07:09:26;;;;;;;18.70;5.10;;;;;;;29.55;28.81;101139.13;108157;1283;22048;-55
2023/09/28 07:11:52;;;;;;;11.30;4.90;;;;;;;29.81;28.45;101140.58;108120;1288;22002;-55
2023/09/28 07:14:17;;;;;;;8.10;4.80;;;;;;;29.94;28.34;101138.46;108117;1288;22158;-59
2023/09/28 07:16:43;;;;;;;9.20;5.10;;;;;;;29.99;28.00;101136.52;108113;1288;21995;-65
2023/09/28 07:19:09;;;;;;;12.00;5.10;;;;;;;30.00;28.05;101136.08;108106;1288;21992;-65
2023/09/28 07:21:36;;;;;;;12.20;4.50;;;;;;;30.08;27.91;101131.02;108134;1288;22000;-57
2023/09/28 07:24:02;;;;;;;8.10;4.10;;;;;;;30.33;27.97;101127.70;108148;1287;22049;-57
2023/09/28 07:26:27;;;;;;;11.80;4.10;;;;;;;30.65;27.78;101125.55;108152;1288;21989;-56
2023/09/28 07:28:54;;;;;;;8.30;4.30;;;;;;;30.91;27.59;101122.73;108107;1284;21991;-61
2023/09/28 07:31:21;;;;;;;12.30;4.40;;;;;;;31.05;27.40;101121.78;108130;1288;22000;-57
2023/09/28 07:33:48;;;;;;;9.80;4.30;;;;;;;31.13;27.13;101119.58;108105;1280;21992;-63
2023/09/28 07:36:14;;;;;;;9.50;3.60;;;;;;;31.22;26.98;101115.77;108119;1288;21983;-57
2023/09/28 07:38:40;;;;;;;9.40;3.60;;;;;;;31.30;26.55;101111.84;108126;1288;22012;-63
2023/09/28 07:41:06;;;;;;;7.00;3.40;;;;;;;31.31;26.22;101111.39;108149;1288;21989;-59
2023/09/28 07:43:31;;;;;;;8.00;3.60;;;;;;;31.30;26.34;101110.66;107826;1288;21995;-59
2023/09/28 07:45:57;;;;;;;10.40;3.50;;;;;;;31.37;26.10;101106.61;108096;1288;21979;-58
2023/09/28 07:48:22;;;;;;;12.00;3.40;;;;;;;31.49;26.24;101101.94;108145;1288;21996;-58
2023/09/28 07:50:48;;;;;;;8.10;3.40;;;;;;;31.69;25.97;101104.50;108130;1288;22015;-64
2023/09/28 07:53:14;;;;;;;8.00;3.20;;;;;;;31.86;25.99;101100.23;108115;1288;21987;-61
2023/09/28 07:55:40;;;;;;;11.50;3.40;;;;;;;32.05;25.84;101099.63;108082;1288;21993;-63
2023/09/28 07:58:05;;;;;;;9.70;3.10;;;;;;;32.18;25.39;101098.40;108099;1288;22002;-58
2023/09/28 08:00:32;;;;;;;6.60;2.60;;;;;;;32.25;25.43;101092.73;108112;1288;21991;-64
2023/09/28 08:02:57;;;;;;;6.10;2.60;;;;;;;32.41;25.38;101090.70;108117;1286;21995;-65
2023/09/28 08:05:23;;;;;;;13.90;2.60;;;;;;;32.64;25.02;101087.96;108108;1288;21990;-58
2023/09/28 08:07:49;;;;;;;7.40;2.80;;;;;;;32.80;24.85;101088.84;108118;1288;21987;-64
2023/09/28 08:10:15;;;;;;;6.50;2.40;;;;;;;32.92;24.68;101089.14;108115;1284;22773;-63
2023/09/28 08:12:42;;;;;;;8.50;2.70;;;;;;;33.03;24.48;101087.03;108146;1288;21986;-64
2023/09/28 08:15:08;;;;;;;7.90;2.40;;;;;;;33.13;24.30;101083.69;108135;1288;22101;-64
2023/09/28 08:17:36;;;;;;;9.50;2.50;;;;;;;33.26;24.42;101078.78;108174;1288;21988;-65
2023/09/28 08:20:02;;;;;;;5.10;2.30;;;;;;;33.43;24.08;101077.41;108172;1288;22002;-65
2023/09/28 08:22:28;;;;;;;8.80;2.50;;;;;;;33.55;24.03;101078.23;108157;1287;22002;-64
2023/09/28 08:24:54;;;;;;;7.00;2.60;;;;;;;33.66;24.08;101074.67;108105;1280;21994;-61
2023/09/28 08:27:19;;;;;;;11.10;2.80;;;;;;;33.80;23.79;101069.35;108128;1288;22103;-58
2023/09/28 08:29:45;;;;;;;13.10;2.80;;;;;;;33.79;23.65;101066.55;108122;1288;23583;-64
2023/09/28 08:32:11;;;;;;;13.30;2.80;;;;;;;33.76;23.31;101065.02;108186;1288;21995;-58
2023/09/28 08:34:36;;;;;;;10.70;2.60;;;;;;;33.78;23.35;101066.75;109263;1284;21992;-58
2023/09/28 08:37:03;;;;;;;21.60;6.60;;;;;;;33.91;23.26;101061.65;108043;1288;22006;-65
2023/09/28 08:39:30;;;;;;;41.90;31.20;;;;;;;34.07;23.02;101060.08;108123;1288;22025;-60
2023/09/28 08:41:58;;;;;;;16.50;6.40;;;;;;;34.23;23.01;101054.80;108114;1288;22000;-58
2023/09/28 08:44:29;;;;;;;15.10;3.50;;;;;;;34.39;22.75;101052.64;107885;1288;22000;-58
2023/09/28 08:46:58;;;;;;;8.80;2.40;;;;;;;34.56;22.95;101051.30;108161;1286;22258;-58
2023/09/28 08:49:25;;;;;;;13.30;2.50;;;;;;;34.75;22.77;101041.45;108163;1288;22002;-58
2023/09/28 08:51:51;;;;;;;69.20;56.50;;;;;;;34.94;22.61;101039.65;108050;1288;22043;-65
2023/09/28 08:54:17;;;;;;;23.60;16.90;;;;;;;35.10;22.12;101031.98;107677;1288;22004;-58
2023/09/28 08:56:42;;;;;;;55.50;48.50;;;;;;;35.21;22.29;101027.70;108071;1288;21994;-65
2023/09/28 08:59:11;;;;;;;15.10;9.90;;;;;;;35.36;22.10;101023.92;107861;1288;21987;-65
2023/09/28 09:01:37;;;;;;;6.70;3.40;;;;;;;35.49;21.73;101020.60;107723;1287;21989;-64
2023/09/28 09:04:03;;;;;;;10.20;2.50;;;;;;;35.50;21.27;101017.69;109117;1288;21994;-64
2023/09/28 09:06:29;;;;;;;3.50;2.10;;;;;;;35.49;21.33;101015.70;108132;1288;21990;-65
2023/09/28 09:09:03;;;;;;;9.20;2.30;;;;;;;35.57;21.48;101016.23;108191;1277;21992;-58
2023/09/28 09:11:31;;;;;;;12.70;1.80;;;;;;;35.72;21.41;101014.72;108109;1287;22518;-65
2023/09/28 09:13:57;;;;;;;10.40;2.20;;;;;;;35.86;21.30;101013.55;108280;1288;21996;-64
2023/09/28 09:16:27;;;;;;;10.80;2.10;;;;;;;35.98;21.22;101007.92;108091;1288;21994;-65
2023/09/28 09:18:55;;;;;;;18.30;2.40;;;;;;;36.10;21.13;101012.66;108131;1288;23644;-65
2023/09/28 09:21:24;;;;;;;8.10;2.00;;;;;;;36.22;20.97;101012.60;108166;1288;22161;-65
2023/09/28 09:24:10;;;;;;;8.10;2.10;;;;;;;36.34;21.04;101003.36;108148;1288;21996;-65
2023/09/28 09:26:46;;;;;;;11.90;2.50;;;;;;;36.46;20.84;101003.31;108116;1288;22460;-64
2023/09/28 09:29:13;;;;;;;6.30;2.00;;;;;;;36.58;20.85;101002.89;108110;1288;21997;-59
2023/09/28 09:31:40;;;;;;;9.40;2.10;;;;;;;36.69;20.44;101000.15;108148;1288;21994;-59
2023/09/28 09:34:11;;;;;;;9.20;2.20;;;;;;;36.74;20.29;101000.91;108116;1288;21992;-58
2023/09/28 09:36:37;;;;;;;8.70;2.00;;;;;;;36.78;20.24;100996.79;108128;1288;21991;-59
2023/09/28 09:39:03;;;;;;;8.50;1.80;;;;;;;36.82;20.16;100993.59;108177;1288;21993;-66
2023/09/28 09:41:29;;;;;;;16.30;3.70;;;;;;;36.84;20.15;100993.58;108085;1288;21949;-59
2023/09/28 09:43:57;;;;;;;7.20;2.00;;;;;;;36.90;20.11;100985.73;108157;1288;22013;-59
2023/09/28 09:46:24;;;;;;;7.40;1.90;;;;;;;37.00;20.09;100981.64;108149;1288;22010;-65
2023/09/28 09:48:50;;;;;;;7.60;1.90;;;;;;;37.12;20.04;100985.38;107811;1288;22005;-59
2023/09/28 09:51:16;;;;;;;4.70;1.70;;;;;;;37.23;20.17;100988.85;107698;1288;21992;-59
2023/09/28 09:53:42;;;;;;;7.80;2.10;;;;;;;37.37;19.91;100989.67;108147;1288;21990;-59
2023/09/28 09:56:09;;;;;;;8.80;2.20;;;;;;;37.37;19.79;100986.16;108142;1288;21999;-65
2023/09/28 09:58:41;;;;;;;7.20;2.10;;;;;;;37.35;19.96;100987.52;108300;1286;21995;-60
2023/09/28 10:01:14;;;;;;;7.80;2.10;;;;;;;37.43;19.80;100991.50;108241;1288;21987;-59
2023/09/28 10:03:42;;;;;;;6.30;1.80;;;;;;;37.52;19.69;100984.15;107977;1288;23056;-60
2023/09/28 10:06:08;;;;;;;5.20;1.70;;;;;;;37.65;19.63;100980.16;108142;1288;21990;-65
2023/09/28 10:08:34;;;;;;;8.30;1.70;;;;;;;37.82;19.51;100979.11;107684;1288;21992;-59
2023/09/28 10:11:00;;;;;;;10.10;3.10;;;;;;;37.98;19.32;100985.58;107713;1288;21994;-65
2023/09/28 10:13:27;;;;;;;4.70;1.90;;;;;;;38.12;19.18;100982.44;108163;1280;22027;-60
2023/09/28 10:15:53;;;;;;;9.90;2.30;;;;;;;38.28;19.18;100977.39;108153;1287;22472;-64
2023/09/28 10:18:19;;;;;;;10.10;2.40;;;;;;;38.39;18.99;100972.46;107975;1288;22012;-64
2023/09/28 10:20:44;;;;;;;9.90;1.90;;;;;;;38.39;18.93;100975.02;107833;1288;23718;-66
2023/09/28 10:23:12;;;;;;;4.90;2.00;;;;;;;38.39;18.65;100973.48;107933;1288;21996;-60
2023/09/28 10:25:54;;;;;;;6.80;2.00;;;;;;;38.36;18.72;100972.05;108234;1288;21993;-65
2023/09/28 10:28:20;;;;;;;9.20;1.70;;;;;;;38.38;18.64;100967.75;108129;1283;22009;-65
2023/09/28 10:30:46;;;;;;;9.40;2.20;;;;;;;38.41;18.67;100963.11;108130;1288;21991;-64
2023/09/28 10:33:12;;;;;;;8.50;2.10;;;;;;;38.45;18.64;100957.61;107687;1288;23462;-66
2023/09/28 10:35:39;;;;;;;5.40;1.70;;;;;;;38.55;18.69;100957.50;108024;1280;23058;-65
2023/09/28 10:38:35;;;;;;;3.70;1.70;;;;;;;38.65;18.69;100956.97;108157;1287;21988;-60
2023/09/28 10:41:05;;;;;;;11.40;2.10;;;;;;;38.64;18.21;100952.17;107745;1286;22035;-64
2023/09/28 10:43:43;;;;;;;9.60;2.40;;;;;;;38.41;18.29;100951.87;108076;1280;21995;-65
2023/09/28 10:46:09;;;;;;;16.00;2.60;;;;;;;38.30;18.37;100952.23;108120;1287;22457;-65
2023/09/28 10:48:39;;;;;;;4.60;1.60;;;;;;;38.40;18.43;100951.08;108076;1283;21994;-65
2023/09/28 10:51:11;;;;;;;6.10;2.10;;;;;;;38.58;18.33;100946.08;108034;1288;22001;-65
2023/09/28 10:53:37;;;;;;;6.30;1.90;;;;;;;38.73;18.21;100943.15;108100;1288;21991;-59
2023/09/28 10:56:10;;;;;;;8.50;2.50;;;;;;;38.65;17.82;100940.55;107916;1288;21996;-60
2023/09/28 10:58:36;;;;;;;5.20;1.70;;;;;;;38.45;17.86;100937.07;107778;1288;21995;-65
2023/09/28 11:01:06;;;;;;;4.60;1.70;;;;;;;38.36;18.02;100936.34;108156;1288;21995;-66
2023/09/28 11:03:33;;;;;;;5.50;1.60;;;;;;;38.49;17.94;100932.52;108092;1288;22278;-65
2023/09/28 11:05:59;;;;;;;9.60;2.00;;;;;;;38.61;17.91;100937.36;108067;1288;22178;-65
2023/09/28 11:08:25;;;;;;;4.40;2.00;;;;;;;38.74;17.98;100932.99;108139;1288;21999;-59
2023/09/28 11:10:51;;;;;;;5.80;1.50;;;;;;;38.88;17.93;100927.74;108101;1288;21992;-66